Terminal Aerodrome Forecast
Issued by NWS

Home | Current Version | Previous Version | Text Only | Print | Product List | Glossary On
Versions: 1 2 3 4 5 6 7 8 9 10 11 12 13 14 15
000
FTUS44 KLIX 311121
TAFMCB
TAF
KMCB 311121Z 3112/0112 00000KT 6SM BR SKC
     FM311300 00000KT P6SM SCT020 SCT100
     FM311500 00000KT P6SM VCTS SCT030CB BKN200
     FM010000 VRB03KT P6SM FEW050 SCT200=

USA.gov is the U.S. government's official web portal to all federal, state and local government web resources and services.